sensor_id;sensor_type;location;lat;lon;timestamp;P1;durP1;ratioP1;P2;durP2;ratioP2
34200;SDS011;20469;55.638;37.670;2023-05-19T00:05:02;4.63;;;4.13;;
34200;SDS011;20469;55.638;37.670;2023-05-19T00:07:30;4.93;;;3.70;;
34200;SDS011;20469;55.638;37.670;2023-05-19T00:09:58;6.10;;;3.53;;
34200;SDS011;20469;55.638;37.670;2023-05-19T00:12:25;3.80;;;3.40;;
34200;SDS011;20469;55.638;37.670;2023-05-19T00:14:53;3.80;;;3.03;;
34200;SDS011;20469;55.638;37.670;2023-05-19T00:17:20;3.25;;;2.95;;
34200;SDS011;20469;55.638;37.670;2023-05-19T00:19:49;3.45;;;3.15;;
34200;SDS011;20469;55.638;37.670;2023-05-19T00:22:16;4.68;;;2.90;;
34200;SDS011;20469;55.638;37.670;2023-05-19T00:24:43;3.63;;;2.85;;
34200;SDS011;20469;55.638;37.670;2023-05-19T00:27:10;4.22;;;2.90;;
34200;SDS011;20469;55.638;37.670;2023-05-19T00:29:37;3.17;;;2.80;;
34200;SDS011;20469;55.638;37.670;2023-05-19T00:32:04;3.20;;;2.70;;
34200;SDS011;20469;55.638;37.670;2023-05-19T00:34:32;2.75;;;2.50;;
34200;SDS011;20469;55.638;37.670;2023-05-19T00:36:59;4.43;;;3.00;;
34200;SDS011;20469;55.638;37.670;2023-05-19T00:39:26;4.63;;;2.80;;
34200;SDS011;20469;55.638;37.670;2023-05-19T00:41:54;4.45;;;2.90;;
34200;SDS011;20469;55.638;37.670;2023-05-19T00:44:21;2.80;;;2.60;;
34200;SDS011;20469;55.638;37.670;2023-05-19T00:46:48;2.92;;;2.67;;
34200;SDS011;20469;55.638;37.670;2023-05-19T00:49:16;2.22;;;2.10;;
34200;SDS011;20469;55.638;37.670;2023-05-19T00:51:43;2.50;;;2.30;;
34200;SDS011;20469;55.638;37.670;2023-05-19T00:54:11;3.05;;;2.30;;
34200;SDS011;20469;55.638;37.670;2023-05-19T00:56:38;3.00;;;2.30;;
34200;SDS011;20469;55.638;37.670;2023-05-19T00:59:05;2.42;;;2.00;;
34200;SDS011;20469;55.638;37.670;2023-05-19T01:01:33;2.80;;;1.77;;
34200;SDS011;20469;55.638;37.670;2023-05-19T01:04:02;1.92;;;1.80;;
34200;SDS011;20469;55.638;37.670;2023-05-19T01:06:30;1.90;;;1.70;;
34200;SDS011;20469;55.638;37.670;2023-05-19T01:08:58;1.90;;;1.67;;
34200;SDS011;20469;55.638;37.670;2023-05-19T01:11:25;2.38;;;1.67;;
34200;SDS011;20469;55.638;37.670;2023-05-19T01:13:52;2.42;;;1.63;;
34200;SDS011;20469;55.638;37.670;2023-05-19T01:16:28;4.25;;;1.50;;
34200;SDS011;20469;55.638;37.670;2023-05-19T01:19:13;1.80;;;1.55;;
34200;SDS011;20469;55.638;37.670;2023-05-19T01:25:12;1.95;;;1.75;;
34200;SDS011;20469;55.638;37.670;2023-05-19T01:31:00;3.15;;;1.73;;
34200;SDS011;20469;55.638;37.670;2023-05-19T01:33:32;2.75;;;1.80;;
34200;SDS011;20469;55.638;37.670;2023-05-19T01:35:59;2.17;;;1.50;;
34200;SDS011;20469;55.638;37.670;2023-05-19T01:38:29;2.38;;;1.67;;
34200;SDS011;20469;55.638;37.670;2023-05-19T01:40:59;2.53;;;1.80;;
34200;SDS011;20469;55.638;37.670;2023-05-19T01:43:29;2.50;;;1.88;;
34200;SDS011;20469;55.638;37.670;2023-05-19T01:45:57;2.28;;;1.67;;
34200;SDS011;20469;55.638;37.670;2023-05-19T01:48:26;4.10;;;1.90;;
34200;SDS011;20469;55.638;37.670;2023-05-19T01:50:55;2.22;;;1.80;;
34200;SDS011;20469;55.638;37.670;2023-05-19T01:53:23;2.03;;;1.90;;
34200;SDS011;20469;55.638;37.670;2023-05-19T01:55:51;4.68;;;2.22;;
34200;SDS011;20469;55.638;37.670;2023-05-19T02:07:00;1.85;;;1.70;;
34200;SDS011;20469;55.638;37.670;2023-05-19T02:09:53;3.05;;;1.50;;
34200;SDS011;20469;55.638;37.670;2023-05-19T02:12:37;2.53;;;1.48;;
34200;SDS011;20469;55.638;37.670;2023-05-19T02:15:17;2.58;;;1.67;;
34200;SDS011;20469;55.638;37.670;2023-05-19T02:17:50;1.58;;;1.48;;
34200;SDS011;20469;55.638;37.670;2023-05-19T02:20:41;3.13;;;1.70;;
34200;SDS011;20469;55.638;37.670;2023-05-19T02:23:08;2.10;;;1.80;;
34200;SDS011;20469;55.638;37.670;2023-05-19T02:25:35;2.28;;;2.08;;
34200;SDS011;20469;55.638;37.670;2023-05-19T02:28:02;4.13;;;2.20;;
34200;SDS011;20469;55.638;37.670;2023-05-19T02:30:30;3.15;;;2.13;;
34200;SDS011;20469;55.638;37.670;2023-05-19T02:32:58;4.13;;;2.28;;
34200;SDS011;20469;55.638;37.670;2023-05-19T02:35:26;6.55;;;2.45;;
34200;SDS011;20469;55.638;37.670;2023-05-19T02:37:53;2.58;;;2.38;;
34200;SDS011;20469;55.638;37.670;2023-05-19T02:40:20;3.72;;;2.70;;
34200;SDS011;20469;55.638;37.670;2023-05-19T02:42:48;3.38;;;2.50;;
34200;SDS011;20469;55.638;37.670;2023-05-19T02:45:15;2.92;;;2.50;;
34200;SDS011;20469;55.638;37.670;2023-05-19T02:47:42;4.93;;;2.53;;
34200;SDS011;20469;55.638;37.670;2023-05-19T02:50:10;2.80;;;2.40;;
34200;SDS011;20469;55.638;37.670;2023-05-19T02:52:37;5.20;;;2.90;;
34200;SDS011;20469;55.638;37.670;2023-05-19T02:55:24;4.50;;;2.47;;
34200;SDS011;20469;55.638;37.670;2023-05-19T02:57:52;3.08;;;2.50;;
34200;SDS011;20469;55.638;37.670;2023-05-19T03:00:19;7.43;;;2.10;;
34200;SDS011;20469;55.638;37.670;2023-05-19T03:02:46;4.00;;;2.28;;
34200;SDS011;20469;55.638;37.670;2023-05-19T03:05:14;6.40;;;2.30;;
34200;SDS011;20469;55.638;37.670;2023-05-19T03:07:41;4.50;;;2.25;;
34200;SDS011;20469;55.638;37.670;2023-05-19T03:10:08;4.10;;;2.05;;
34200;SDS011;20469;55.638;37.670;2023-05-19T03:12:36;4.95;;;2.00;;
34200;SDS011;20469;55.638;37.670;2023-05-19T03:15:03;4.15;;;2.28;;
34200;SDS011;20469;55.638;37.670;2023-05-19T03:17:31;4.43;;;2.40;;
34200;SDS011;20469;55.638;37.670;2023-05-19T03:19:59;3.05;;;2.05;;
34200;SDS011;20469;55.638;37.670;2023-05-19T03:22:30;2.78;;;2.08;;
34200;SDS011;20469;55.638;37.670;2023-05-19T03:24:57;2.97;;;2.17;;
34200;SDS011;20469;55.638;37.670;2023-05-19T03:27:25;6.10;;;2.20;;
34200;SDS011;20469;55.638;37.670;2023-05-19T03:29:52;3.15;;;2.28;;
34200;SDS011;20469;55.638;37.670;2023-05-19T03:32:19;2.90;;;2.20;;
34200;SDS011;20469;55.638;37.670;2023-05-19T03:34:46;4.75;;;2.47;;
34200;SDS011;20469;55.638;37.670;2023-05-19T03:37:14;3.40;;;2.30;;
34200;SDS011;20469;55.638;37.670;2023-05-19T03:39:41;3.63;;;2.30;;
34200;SDS011;20469;55.638;37.670;2023-05-19T03:42:08;6.63;;;2.50;;
34200;SDS011;20469;55.638;37.670;2023-05-19T03:44:36;4.63;;;2.35;;
34200;SDS011;20469;55.638;37.670;2023-05-19T03:47:03;3.63;;;2.42;;
34200;SDS011;20469;55.638;37.670;2023-05-19T03:49:30;4.68;;;2.33;;
34200;SDS011;20469;55.638;37.670;2023-05-19T03:51:58;6.43;;;2.80;;
34200;SDS011;20469;55.638;37.670;2023-05-19T03:54:25;5.63;;;2.40;;
34200;SDS011;20469;55.638;37.670;2023-05-19T03:56:52;4.53;;;2.35;;
34200;SDS011;20469;55.638;37.670;2023-05-19T03:59:20;3.58;;;2.17;;
34200;SDS011;20469;55.638;37.670;2023-05-19T04:01:49;4.65;;;2.67;;
34200;SDS011;20469;55.638;37.670;2023-05-19T04:04:17;3.90;;;2.58;;
34200;SDS011;20469;55.638;37.670;2023-05-19T04:06:44;4.43;;;2.50;;
34200;SDS011;20469;55.638;37.670;2023-05-19T04:09:12;4.13;;;2.92;;
34200;SDS011;20469;55.638;37.670;2023-05-19T04:11:41;3.83;;;2.50;;
34200;SDS011;20469;55.638;37.670;2023-05-19T04:14:08;4.95;;;2.85;;
34200;SDS011;20469;55.638;37.670;2023-05-19T04:16:35;7.20;;;3.17;;
34200;SDS011;20469;55.638;37.670;2023-05-19T04:19:03;3.55;;;2.45;;
34200;SDS011;20469;55.638;37.670;2023-05-19T04:21:31;3.08;;;2.38;;
34200;SDS011;20469;55.638;37.670;2023-05-19T04:24:17;5.45;;;3.35;;
34200;SDS011;20469;55.638;37.670;2023-05-19T04:26:44;4.40;;;2.60;;
34200;SDS011;20469;55.638;37.670;2023-05-19T04:29:13;4.53;;;3.00;;
34200;SDS011;20469;55.638;37.670;2023-05-19T04:31:44;3.50;;;2.80;;
34200;SDS011;20469;55.638;37.670;2023-05-19T04:34:11;4.45;;;2.63;;
34200;SDS011;20469;55.638;37.670;2023-05-19T04:36:38;4.28;;;2.88;;
34200;SDS011;20469;55.638;37.670;2023-05-19T04:39:06;6.78;;;3.15;;
34200;SDS011;20469;55.638;37.670;2023-05-19T04:41:35;6.47;;;3.03;;
34200;SDS011;20469;55.638;37.670;2023-05-19T04:44:05;4.25;;;3.22;;
34200;SDS011;20469;55.638;37.670;2023-05-19T04:46:34;6.78;;;3.63;;
34200;SDS011;20469;55.638;37.670;2023-05-19T04:49:02;3.97;;;3.50;;
34200;SDS011;20469;55.638;37.670;2023-05-19T04:51:29;5.20;;;3.28;;
34200;SDS011;20469;55.638;37.670;2023-05-19T04:53:57;10.70;;;3.78;;
34200;SDS011;20469;55.638;37.670;2023-05-19T04:56:24;7.28;;;3.50;;
34200;SDS011;20469;55.638;37.670;2023-05-19T04:58:52;4.72;;;3.80;;
34200;SDS011;20469;55.638;37.670;2023-05-19T05:01:20;6.07;;;3.72;;
34200;SDS011;20469;55.638;37.670;2023-05-19T05:03:52;7.85;;;3.80;;
34200;SDS011;20469;55.638;37.670;2023-05-19T05:06:24;5.55;;;4.22;;
34200;SDS011;20469;55.638;37.670;2023-05-19T05:08:52;5.55;;;3.58;;
34200;SDS011;20469;55.638;37.670;2023-05-19T05:11:19;8.43;;;4.22;;
34200;SDS011;20469;55.638;37.670;2023-05-19T05:13:47;6.50;;;4.00;;
34200;SDS011;20469;55.638;37.670;2023-05-19T05:16:15;7.47;;;3.72;;
34200;SDS011;20469;55.638;37.670;2023-05-19T05:18:43;7.57;;;4.85;;
34200;SDS011;20469;55.638;37.670;2023-05-19T05:21:12;12.75;;;5.43;;
34200;SDS011;20469;55.638;37.670;2023-05-19T05:23:39;13.57;;;8.25;;
34200;SDS011;20469;55.638;37.670;2023-05-19T05:26:14;13.05;;;7.75;;
34200;SDS011;20469;55.638;37.670;2023-05-19T05:28:44;8.45;;;5.43;;
34200;SDS011;20469;55.638;37.670;2023-05-19T05:31:11;7.85;;;5.95;;
34200;SDS011;20469;55.638;37.670;2023-05-19T05:33:38;6.93;;;5.18;;
34200;SDS011;20469;55.638;37.670;2023-05-19T05:36:06;7.13;;;4.78;;
34200;SDS011;20469;55.638;37.670;2023-05-19T05:38:34;5.47;;;4.32;;
34200;SDS011;20469;55.638;37.670;2023-05-19T05:41:01;6.47;;;4.60;;
34200;SDS011;20469;55.638;37.670;2023-05-19T05:43:29;8.57;;;5.30;;
34200;SDS011;20469;55.638;37.670;2023-05-19T05:45:56;6.32;;;4.55;;
34200;SDS011;20469;55.638;37.670;2023-05-19T05:48:24;6.75;;;5.13;;
34200;SDS011;20469;55.638;37.670;2023-05-19T05:50:51;10.50;;;7.28;;
34200;SDS011;20469;55.638;37.670;2023-05-19T05:53:20;6.57;;;5.15;;
34200;SDS011;20469;55.638;37.670;2023-05-19T05:55:48;7.10;;;4.90;;
34200;SDS011;20469;55.638;37.670;2023-05-19T05:58:16;8.77;;;6.20;;
34200;SDS011;20469;55.638;37.670;2023-05-19T06:00:43;9.48;;;5.28;;
34200;SDS011;20469;55.638;37.670;2023-05-19T06:03:13;6.75;;;5.32;;
34200;SDS011;20469;55.638;37.670;2023-05-19T06:05:40;7.60;;;5.30;;
34200;SDS011;20469;55.638;37.670;2023-05-19T06:08:07;6.32;;;4.80;;
34200;SDS011;20469;55.638;37.670;2023-05-19T06:10:34;6.88;;;5.03;;
34200;SDS011;20469;55.638;37.670;2023-05-19T06:13:04;5.88;;;4.78;;
34200;SDS011;20469;55.638;37.670;2023-05-19T06:15:31;8.77;;;5.50;;
34200;SDS011;20469;55.638;37.670;2023-05-19T06:17:59;7.70;;;5.22;;
34200;SDS011;20469;55.638;37.670;2023-05-19T06:20:27;5.70;;;5.10;;
34200;SDS011;20469;55.638;37.670;2023-05-19T06:22:54;5.75;;;4.78;;
34200;SDS011;20469;55.638;37.670;2023-05-19T06:25:22;8.82;;;5.63;;
34200;SDS011;20469;55.638;37.670;2023-05-19T06:27:50;7.65;;;6.15;;
34200;SDS011;20469;55.638;37.670;2023-05-19T06:30:17;7.40;;;5.95;;
34200;SDS011;20469;55.638;37.670;2023-05-19T06:32:45;9.27;;;6.45;;
34200;SDS011;20469;55.638;37.670;2023-05-19T06:35:12;7.38;;;5.88;;
34200;SDS011;20469;55.638;37.670;2023-05-19T06:37:40;6.88;;;6.20;;
34200;SDS011;20469;55.638;37.670;2023-05-19T06:40:07;7.68;;;6.25;;
34200;SDS011;20469;55.638;37.670;2023-05-19T06:42:35;6.80;;;6.10;;
34200;SDS011;20469;55.638;37.670;2023-05-19T06:45:02;7.22;;;6.53;;
34200;SDS011;20469;55.638;37.670;2023-05-19T06:47:33;9.73;;;6.60;;
34200;SDS011;20469;55.638;37.670;2023-05-19T06:50:00;8.35;;;6.45;;
34200;SDS011;20469;55.638;37.670;2023-05-19T06:52:31;8.23;;;6.65;;
34200;SDS011;20469;55.638;37.670;2023-05-19T06:54:58;7.25;;;6.07;;
34200;SDS011;20469;55.638;37.670;2023-05-19T06:57:26;9.70;;;6.43;;
34200;SDS011;20469;55.638;37.670;2023-05-19T06:59:53;8.43;;;6.18;;
34200;SDS011;20469;55.638;37.670;2023-05-19T07:02:20;11.50;;;7.32;;
34200;SDS011;20469;55.638;37.670;2023-05-19T07:04:47;9.82;;;6.80;;
34200;SDS011;20469;55.638;37.670;2023-05-19T07:07:14;10.20;;;7.00;;
34200;SDS011;20469;55.638;37.670;2023-05-19T07:09:42;9.05;;;6.07;;
34200;SDS011;20469;55.638;37.670;2023-05-19T07:12:09;7.90;;;6.63;;
34200;SDS011;20469;55.638;37.670;2023-05-19T07:14:36;7.80;;;6.30;;
34200;SDS011;20469;55.638;37.670;2023-05-19T07:17:04;10.80;;;6.90;;
34200;SDS011;20469;55.638;37.670;2023-05-19T07:19:31;8.90;;;6.88;;
34200;SDS011;20469;55.638;37.670;2023-05-19T07:21:58;9.23;;;6.75;;
34200;SDS011;20469;55.638;37.670;2023-05-19T07:24:26;10.30;;;7.25;;
34200;SDS011;20469;55.638;37.670;2023-05-19T07:26:53;7.30;;;6.55;;
34200;SDS011;20469;55.638;37.670;2023-05-19T07:29:20;9.20;;;6.70;;
34200;SDS011;20469;55.638;37.670;2023-05-19T07:31:48;9.18;;;6.50;;
34200;SDS011;20469;55.638;37.670;2023-05-19T07:34:19;9.18;;;6.60;;
34200;SDS011;20469;55.638;37.670;2023-05-19T07:36:47;7.55;;;6.57;;
34200;SDS011;20469;55.638;37.670;2023-05-19T07:39:14;10.00;;;6.80;;
34200;SDS011;20469;55.638;37.670;2023-05-19T07:41:42;10.77;;;7.20;;
34200;SDS011;20469;55.638;37.670;2023-05-19T07:46:56;9.82;;;7.05;;
34200;SDS011;20469;55.638;37.670;2023-05-19T07:49:24;10.93;;;7.25;;
34200;SDS011;20469;55.638;37.670;2023-05-19T07:51:52;8.00;;;6.80;;
34200;SDS011;20469;55.638;37.670;2023-05-19T07:54:19;9.05;;;6.95;;
34200;SDS011;20469;55.638;37.670;2023-05-19T07:56:47;9.73;;;7.10;;
34200;SDS011;20469;55.638;37.670;2023-05-19T07:59:14;7.75;;;6.53;;
34200;SDS011;20469;55.638;37.670;2023-05-19T08:01:41;8.88;;;6.95;;
34200;SDS011;20469;55.638;37.670;2023-05-19T08:04:27;8.82;;;7.35;;
34200;SDS011;20469;55.638;37.670;2023-05-19T08:06:55;12.95;;;6.68;;
34200;SDS011;20469;55.638;37.670;2023-05-19T08:12:08;9.63;;;6.57;;
34200;SDS011;20469;55.638;37.670;2023-05-19T08:14:35;9.77;;;7.38;;
34200;SDS011;20469;55.638;37.670;2023-05-19T08:17:02;9.00;;;7.38;;
34200;SDS011;20469;55.638;37.670;2023-05-19T08:19:30;10.70;;;7.97;;
34200;SDS011;20469;55.638;37.670;2023-05-19T08:21:57;9.48;;;7.78;;
34200;SDS011;20469;55.638;37.670;2023-05-19T08:24:26;11.65;;;7.97;;
34200;SDS011;20469;55.638;37.670;2023-05-19T08:26:58;10.25;;;8.10;;
34200;SDS011;20469;55.638;37.670;2023-05-19T08:29:27;10.23;;;7.97;;
34200;SDS011;20469;55.638;37.670;2023-05-19T08:31:54;8.93;;;7.53;;
34200;SDS011;20469;55.638;37.670;2023-05-19T08:34:21;7.88;;;7.00;;
34200;SDS011;20469;55.638;37.670;2023-05-19T08:36:49;9.50;;;7.18;;
34200;SDS011;20469;55.638;37.670;2023-05-19T08:39:16;9.57;;;7.53;;
34200;SDS011;20469;55.638;37.670;2023-05-19T08:41:45;10.10;;;7.35;;
34200;SDS011;20469;55.638;37.670;2023-05-19T08:44:12;12.27;;;7.55;;
34200;SDS011;20469;55.638;37.670;2023-05-19T08:46:41;7.95;;;6.53;;
34200;SDS011;20469;55.638;37.670;2023-05-19T08:49:10;8.63;;;6.18;;
34200;SDS011;20469;55.638;37.670;2023-05-19T08:54:36;7.60;;;6.00;;
34200;SDS011;20469;55.638;37.670;2023-05-19T08:57:10;9.02;;;5.30;;
34200;SDS011;20469;55.638;37.670;2023-05-19T08:59:38;8.43;;;5.70;;
34200;SDS011;20469;55.638;37.670;2023-05-19T09:02:08;10.38;;;5.05;;
34200;SDS011;20469;55.638;37.670;2023-05-19T09:04:38;7.35;;;4.65;;
34200;SDS011;20469;55.638;37.670;2023-05-19T09:07:07;10.25;;;4.15;;
34200;SDS011;20469;55.638;37.670;2023-05-19T09:09:34;6.38;;;3.72;;
34200;SDS011;20469;55.638;37.670;2023-05-19T09:12:02;8.25;;;3.80;;
34200;SDS011;20469;55.638;37.670;2023-05-19T09:14:30;7.00;;;3.78;;
34200;SDS011;20469;55.638;37.670;2023-05-19T09:16:58;4.40;;;3.50;;
34200;SDS011;20469;55.638;37.670;2023-05-19T09:19:27;7.15;;;3.67;;
34200;SDS011;20469;55.638;37.670;2023-05-19T09:21:58;5.43;;;3.70;;
34200;SDS011;20469;55.638;37.670;2023-05-19T09:24:29;9.65;;;4.38;;
34200;SDS011;20469;55.638;37.670;2023-05-19T09:26:56;6.50;;;3.90;;
34200;SDS011;20469;55.638;37.670;2023-05-19T09:29:25;7.03;;;3.83;;
34200;SDS011;20469;55.638;37.670;2023-05-19T09:31:53;9.35;;;4.10;;
34200;SDS011;20469;55.638;37.670;2023-05-19T09:34:26;6.70;;;3.72;;
34200;SDS011;20469;55.638;37.670;2023-05-19T09:36:53;6.60;;;3.20;;
34200;SDS011;20469;55.638;37.670;2023-05-19T09:39:21;5.25;;;3.33;;
34200;SDS011;20469;55.638;37.670;2023-05-19T09:41:50;6.30;;;3.38;;
34200;SDS011;20469;55.638;37.670;2023-05-19T09:44:26;6.68;;;3.60;;
34200;SDS011;20469;55.638;37.670;2023-05-19T09:46:58;7.38;;;3.75;;
34200;SDS011;20469;55.638;37.670;2023-05-19T09:49:26;7.57;;;3.05;;
34200;SDS011;20469;55.638;37.670;2023-05-19T09:51:59;4.97;;;3.20;;
34200;SDS011;20469;55.638;37.670;2023-05-19T09:54:29;5.35;;;3.00;;
34200;SDS011;20469;55.638;37.670;2023-05-19T09:56:58;5.28;;;2.92;;
34200;SDS011;20469;55.638;37.670;2023-05-19T09:59:27;5.65;;;2.85;;
34200;SDS011;20469;55.638;37.670;2023-05-19T10:01:59;11.90;;;3.15;;
34200;SDS011;20469;55.638;37.670;2023-05-19T10:04:28;9.00;;;2.92;;
34200;SDS011;20469;55.638;37.670;2023-05-19T10:06:57;4.20;;;2.65;;
34200;SDS011;20469;55.638;37.670;2023-05-19T10:09:26;8.10;;;3.47;;
34200;SDS011;20469;55.638;37.670;2023-05-19T10:11:55;7.82;;;3.63;;
34200;SDS011;20469;55.638;37.670;2023-05-19T10:14:26;5.15;;;3.10;;
34200;SDS011;20469;55.638;37.670;2023-05-19T10:16:55;8.55;;;2.55;;
34200;SDS011;20469;55.638;37.670;2023-05-19T10:19:24;7.35;;;2.95;;
34200;SDS011;20469;55.638;37.670;2023-05-19T10:21:53;5.85;;;2.97;;
34200;SDS011;20469;55.638;37.670;2023-05-19T10:24:21;6.15;;;2.65;;
34200;SDS011;20469;55.638;37.670;2023-05-19T10:27:10;5.80;;;2.58;;
34200;SDS011;20469;55.638;37.670;2023-05-19T10:29:38;6.15;;;2.70;;
34200;SDS011;20469;55.638;37.670;2023-05-19T10:32:13;5.63;;;2.45;;
34200;SDS011;20469;55.638;37.670;2023-05-19T10:37:33;7.45;;;2.90;;
34200;SDS011;20469;55.638;37.670;2023-05-19T10:45:22;4.22;;;2.38;;
34200;SDS011;20469;55.638;37.670;2023-05-19T10:47:54;5.47;;;2.55;;
34200;SDS011;20469;55.638;37.670;2023-05-19T10:50:21;6.10;;;2.58;;
34200;SDS011;20469;55.638;37.670;2023-05-19T10:52:52;6.00;;;3.15;;
34200;SDS011;20469;55.638;37.670;2023-05-19T11:01:13;4.78;;;2.35;;
34200;SDS011;20469;55.638;37.670;2023-05-19T11:03:45;9.02;;;2.40;;
34200;SDS011;20469;55.638;37.670;2023-05-19T11:06:24;6.25;;;2.75;;
34200;SDS011;20469;55.638;37.670;2023-05-19T11:11:45;3.70;;;2.10;;
34200;SDS011;20469;55.638;37.670;2023-05-19T11:14:20;3.42;;;2.08;;
34200;SDS011;20469;55.638;37.670;2023-05-19T11:16:57;7.13;;;1.80;;
34200;SDS011;20469;55.638;37.670;2023-05-19T11:19:29;4.47;;;2.20;;
34200;SDS011;20469;55.638;37.670;2023-05-19T11:22:10;4.40;;;1.90;;
34200;SDS011;20469;55.638;37.670;2023-05-19T11:24:42;4.28;;;2.10;;
34200;SDS011;20469;55.638;37.670;2023-05-19T11:27:19;3.65;;;1.90;;
34200;SDS011;20469;55.638;37.670;2023-05-19T11:32:37;7.68;;;2.10;;
34200;SDS011;20469;55.638;37.670;2023-05-19T11:35:05;5.07;;;1.85;;
34200;SDS011;20469;55.638;37.670;2023-05-19T11:37:34;5.50;;;1.98;;
34200;SDS011;20469;55.638;37.670;2023-05-19T11:40:02;2.50;;;1.77;;
34200;SDS011;20469;55.638;37.670;2023-05-19T11:42:33;3.90;;;2.20;;
34200;SDS011;20469;55.638;37.670;2023-05-19T11:45:02;3.58;;;1.85;;
34200;SDS011;20469;55.638;37.670;2023-05-19T11:47:34;6.10;;;1.88;;
34200;SDS011;20469;55.638;37.670;2023-05-19T11:50:21;5.22;;;1.85;;
34200;SDS011;20469;55.638;37.670;2023-05-19T11:52:50;6.75;;;2.08;;
34200;SDS011;20469;55.638;37.670;2023-05-19T11:55:18;3.67;;;2.00;;
34200;SDS011;20469;55.638;37.670;2023-05-19T11:57:55;5.13;;;2.00;;
34200;SDS011;20469;55.638;37.670;2023-05-19T12:00:33;6.20;;;1.83;;
34200;SDS011;20469;55.638;37.670;2023-05-19T12:03:06;4.10;;;1.77;;
34200;SDS011;20469;55.638;37.670;2023-05-19T12:05:44;6.50;;;2.30;;
34200;SDS011;20469;55.638;37.670;2023-05-19T12:08:15;5.55;;;2.10;;
34200;SDS011;20469;55.638;37.670;2023-05-19T12:10:46;6.68;;;1.98;;
34200;SDS011;20469;55.638;37.670;2023-05-19T12:13:18;8.73;;;2.22;;
34200;SDS011;20469;55.638;37.670;2023-05-19T12:15:45;4.60;;;1.75;;
34200;SDS011;20469;55.638;37.670;2023-05-19T12:18:12;4.50;;;1.90;;
34200;SDS011;20469;55.638;37.670;2023-05-19T12:20:40;7.10;;;1.80;;
34200;SDS011;20469;55.638;37.670;2023-05-19T12:23:07;4.30;;;2.00;;
34200;SDS011;20469;55.638;37.670;2023-05-19T12:25:35;4.60;;;2.00;;
34200;SDS011;20469;55.638;37.670;2023-05-19T12:28:04;4.95;;;1.80;;
34200;SDS011;20469;55.638;37.670;2023-05-19T12:30:31;4.18;;;1.80;;
34200;SDS011;20469;55.638;37.670;2023-05-19T12:33:00;5.03;;;2.00;;
34200;SDS011;20469;55.638;37.670;2023-05-19T12:35:29;4.85;;;1.65;;
34200;SDS011;20469;55.638;37.670;2023-05-19T12:38:03;4.22;;;1.45;;
34200;SDS011;20469;55.638;37.670;2023-05-19T12:40:34;4.63;;;1.60;;
34200;SDS011;20469;55.638;37.670;2023-05-19T12:43:03;5.75;;;1.90;;
34200;SDS011;20469;55.638;37.670;2023-05-19T12:45:33;7.43;;;1.83;;
34200;SDS011;20469;55.638;37.670;2023-05-19T12:48:09;5.97;;;1.92;;
34200;SDS011;20469;55.638;37.670;2023-05-19T12:50:37;5.57;;;1.60;;
34200;SDS011;20469;55.638;37.670;2023-05-19T12:53:09;5.38;;;1.75;;
34200;SDS011;20469;55.638;37.670;2023-05-19T12:55:41;4.22;;;1.60;;
34200;SDS011;20469;55.638;37.670;2023-05-19T12:58:13;4.67;;;1.67;;
34200;SDS011;20469;55.638;37.670;2023-05-19T13:00:42;8.33;;;1.70;;
34200;SDS011;20469;55.638;37.670;2023-05-19T13:03:15;3.63;;;1.60;;
34200;SDS011;20469;55.638;37.670;2023-05-19T13:05:45;6.38;;;1.45;;
34200;SDS011;20469;55.638;37.670;2023-05-19T13:08:15;5.38;;;1.92;;
34200;SDS011;20469;55.638;37.670;2023-05-19T13:10:44;3.60;;;1.50;;
34200;SDS011;20469;55.638;37.670;2023-05-19T13:13:12;6.25;;;1.50;;
34200;SDS011;20469;55.638;37.670;2023-05-19T13:15:40;3.28;;;1.63;;
34200;SDS011;20469;55.638;37.670;2023-05-19T13:18:10;10.70;;;2.20;;
34200;SDS011;20469;55.638;37.670;2023-05-19T13:20:39;5.32;;;2.03;;
34200;SDS011;20469;55.638;37.670;2023-05-19T13:23:11;4.00;;;1.40;;
34200;SDS011;20469;55.638;37.670;2023-05-19T13:25:39;4.43;;;1.67;;
34200;SDS011;20469;55.638;37.670;2023-05-19T13:28:07;4.32;;;1.55;;
34200;SDS011;20469;55.638;37.670;2023-05-19T13:30:35;7.05;;;1.70;;
34200;SDS011;20469;55.638;37.670;2023-05-19T13:33:04;2.17;;;1.35;;
34200;SDS011;20469;55.638;37.670;2023-05-19T13:35:35;4.72;;;1.85;;
34200;SDS011;20469;55.638;37.670;2023-05-19T13:38:04;6.70;;;1.60;;
34200;SDS011;20469;55.638;37.670;2023-05-19T13:40:33;6.88;;;1.83;;
34200;SDS011;20469;55.638;37.670;2023-05-19T13:43:01;7.00;;;1.60;;
34200;SDS011;20469;55.638;37.670;2023-05-19T13:45:30;3.17;;;1.60;;
34200;SDS011;20469;55.638;37.670;2023-05-19T13:47:57;3.53;;;1.70;;
34200;SDS011;20469;55.638;37.670;2023-05-19T13:50:25;5.75;;;1.70;;
34200;SDS011;20469;55.638;37.670;2023-05-19T13:52:52;5.53;;;1.83;;
34200;SDS011;20469;55.638;37.670;2023-05-19T13:55:19;8.18;;;1.90;;
34200;SDS011;20469;55.638;37.670;2023-05-19T13:57:47;7.32;;;1.70;;
34200;SDS011;20469;55.638;37.670;2023-05-19T14:00:15;4.13;;;1.75;;
34200;SDS011;20469;55.638;37.670;2023-05-19T14:02:43;4.88;;;1.63;;
34200;SDS011;20469;55.638;37.670;2023-05-19T14:05:11;6.35;;;1.73;;
34200;SDS011;20469;55.638;37.670;2023-05-19T14:07:38;2.92;;;1.60;;
34200;SDS011;20469;55.638;37.670;2023-05-19T14:10:06;4.50;;;1.80;;
34200;SDS011;20469;55.638;37.670;2023-05-19T14:12:34;4.20;;;1.40;;
34200;SDS011;20469;55.638;37.670;2023-05-19T14:15:21;3.22;;;1.73;;
34200;SDS011;20469;55.638;37.670;2023-05-19T14:17:49;4.75;;;1.60;;
34200;SDS011;20469;55.638;37.670;2023-05-19T14:20:18;4.43;;;1.63;;
34200;SDS011;20469;55.638;37.670;2023-05-19T14:22:45;5.15;;;1.60;;
34200;SDS011;20469;55.638;37.670;2023-05-19T14:25:15;6.20;;;1.70;;
34200;SDS011;20469;55.638;37.670;2023-05-19T14:27:42;4.53;;;1.70;;
34200;SDS011;20469;55.638;37.670;2023-05-19T14:30:09;8.85;;;1.80;;
34200;SDS011;20469;55.638;37.670;2023-05-19T14:32:37;4.22;;;1.70;;
34200;SDS011;20469;55.638;37.670;2023-05-19T14:35:04;4.97;;;1.83;;
34200;SDS011;20469;55.638;37.670;2023-05-19T14:37:32;5.05;;;1.63;;
34200;SDS011;20469;55.638;37.670;2023-05-19T14:39:59;3.65;;;1.50;;
34200;SDS011;20469;55.638;37.670;2023-05-19T14:42:46;3.95;;;1.88;;
34200;SDS011;20469;55.638;37.670;2023-05-19T14:45:13;4.95;;;1.60;;
34200;SDS011;20469;55.638;37.670;2023-05-19T14:47:40;6.45;;;1.73;;
34200;SDS011;20469;55.638;37.670;2023-05-19T14:50:27;6.90;;;1.90;;
34200;SDS011;20469;55.638;37.670;2023-05-19T14:52:55;4.18;;;1.73;;
34200;SDS011;20469;55.638;37.670;2023-05-19T14:55:22;4.40;;;1.67;;
34200;SDS011;20469;55.638;37.670;2023-05-19T14:57:50;2.63;;;1.50;;
34200;SDS011;20469;55.638;37.670;2023-05-19T15:00:17;5.10;;;1.65;;
34200;SDS011;20469;55.638;37.670;2023-05-19T15:02:45;7.20;;;2.08;;
34200;SDS011;20469;55.638;37.670;2023-05-19T15:05:13;4.97;;;1.77;;
34200;SDS011;20469;55.638;37.670;2023-05-19T15:07:40;3.65;;;1.95;;
34200;SDS011;20469;55.638;37.670;2023-05-19T15:10:08;5.25;;;1.55;;
34200;SDS011;20469;55.638;37.670;2023-05-19T15:12:35;4.07;;;1.50;;
34200;SDS011;20469;55.638;37.670;2023-05-19T15:15:03;3.60;;;1.40;;
34200;SDS011;20469;55.638;37.670;2023-05-19T15:17:31;3.92;;;1.67;;
34200;SDS011;20469;55.638;37.670;2023-05-19T15:20:02;4.35;;;1.33;;
34200;SDS011;20469;55.638;37.670;2023-05-19T15:22:30;3.72;;;1.90;;
34200;SDS011;20469;55.638;37.670;2023-05-19T15:25:16;2.97;;;1.45;;
34200;SDS011;20469;55.638;37.670;2023-05-19T15:27:43;4.00;;;1.30;;
34200;SDS011;20469;55.638;37.670;2023-05-19T15:30:12;6.45;;;1.80;;
34200;SDS011;20469;55.638;37.670;2023-05-19T15:32:39;3.35;;;1.70;;